createdAt,value
2019-05-12T00:00:25.197Z,99436.23
2019-05-12T00:02:54.902Z,99444.67
2019-05-12T00:05:24.612Z,99448.44
2019-05-12T00:07:54.312Z,99454.63
2019-05-12T00:10:24.031Z,99450.75
2019-05-12T00:12:53.477Z,99459.29
2019-05-12T00:15:23.250Z,99459.92
2019-05-12T00:17:52.948Z,99465.34
2019-05-12T00:20:22.379Z,99465.42
2019-05-12T00:22:53.461Z,99468.11
2019-05-12T00:25:23.209Z,99474.09
2019-05-12T00:27:52.898Z,99474.16
2019-05-12T00:30:41.784Z,99475.39
2019-05-12T00:33:11.225Z,99480.91
2019-05-12T00:35:40.997Z,99482.70
2019-05-12T00:38:10.439Z,99483.88
2019-05-12T00:40:39.954Z,99486.72
2019-05-12T00:43:10.619Z,99485.92
2019-05-12T00:45:41.259Z,99485.42
2019-05-12T00:48:10.959Z,99489.61
2019-05-12T00:50:40.400Z,99486.77
2019-05-12T00:53:10.074Z,99487.32
2019-05-12T00:55:39.520Z,99494.27
2019-05-12T00:58:09.401Z,99497.83
2019-05-12T01:00:41.179Z,99495.95
2019-05-12T01:03:10.651Z,99502.03
2019-05-12T01:05:40.357Z,99502.83
2019-05-12T01:08:09.901Z,99500.52
2019-05-12T01:10:39.577Z,99504.29
2019-05-12T01:13:09.286Z,99503.55
2019-05-12T01:15:39.012Z,99502.72
2019-05-12T01:18:09.600Z,99508.16
2019-05-12T01:20:39.547Z,99521.00
2019-05-12T01:23:09.207Z,99521.87
2019-05-12T01:25:39.849Z,99516.72
2019-05-12T01:28:09.641Z,99522.58
2019-05-12T01:30:39.562Z,99524.57
2019-05-12T01:33:09.246Z,99526.35
2019-05-12T01:35:39.265Z,99529.53
2019-05-12T01:38:08.881Z,99541.46
2019-05-12T01:40:39.632Z,99547.11
2019-05-12T01:43:09.386Z,99542.65
2019-05-12T01:45:38.841Z,99548.30
2019-05-12T01:48:09.395Z,99557.01
2019-05-12T01:50:39.380Z,99553.41
2019-05-12T01:53:09.005Z,99558.53
2019-05-12T01:55:39.234Z,99564.23
2019-05-12T01:58:09.298Z,99564.23
2019-05-12T02:00:39.396Z,99559.66
2019-05-12T02:03:09.697Z,99571.22
2019-05-12T02:05:41.365Z,99573.25
2019-05-12T02:08:12.448Z,99586.28
2019-05-12T02:10:41.875Z,99588.98
2019-05-12T02:13:11.630Z,99585.16
2019-05-12T02:15:41.129Z,99588.39
2019-05-12T02:18:10.568Z,99595.98
2019-05-12T02:20:40.012Z,99596.61
2019-05-12T02:23:09.696Z,99598.77
2019-05-12T02:25:39.154Z,99599.42
2019-05-12T02:28:09.457Z,99603.88
2019-05-12T02:30:41.577Z,99609.53
2019-05-12T02:33:10.461Z,99610.44
2019-05-12T02:35:39.967Z,99618.57
2019-05-12T02:38:09.418Z,99629.55
2019-05-12T02:40:38.867Z,99628.41
2019-05-12T02:43:08.323Z,99630.58
2019-05-12T02:45:37.737Z,99635.36
2019-05-12T02:48:07.472Z,99630.24
2019-05-12T02:50:38.352Z,99642.52
2019-05-12T02:53:08.245Z,99644.20
2019-05-12T02:55:38.429Z,99646.45
2019-05-12T02:58:07.931Z,99655.55
2019-05-12T03:00:37.497Z,99664.74
2019-05-12T03:03:09.241Z,99679.34
2019-05-12T03:05:44.243Z,99678.41
2019-05-12T03:08:15.577Z,99672.44
2019-05-12T03:10:48.958Z,99683.85
2019-05-12T03:13:18.387Z,99694.35
2019-05-12T03:15:47.837Z,99692.99
2019-05-12T03:18:17.582Z,99695.97
2019-05-12T03:20:47.278Z,99698.00
2019-05-12T03:23:19.447Z,99693.38
2019-05-12T03:25:48.206Z,99697.08
2019-05-12T03:28:17.641Z,99707.90
2019-05-12T03:30:48.983Z,99711.72
2019-05-12T03:33:20.343Z,99718.66
2019-05-12T03:35:53.066Z,99719.47
2019-05-12T03:38:24.294Z,99720.47
2019-05-12T03:40:55.100Z,99725.64
2019-05-12T03:43:24.465Z,99732.71
2019-05-12T03:45:55.819Z,99740.48
2019-05-12T03:48:25.448Z,99748.71
2019-05-12T03:50:55.158Z,99754.45
2019-05-12T03:53:25.054Z,99749.41
2019-05-12T03:55:55.375Z,99756.64
2019-05-12T03:58:25.773Z,99753.97
2019-05-12T04:00:55.683Z,99767.73
2019-05-12T04:03:25.556Z,99769.46
2019-05-12T04:05:55.514Z,99776.64
2019-05-12T04:08:25.378Z,99768.98
2019-05-12T04:10:55.134Z,99768.98
2019-05-12T04:13:26.513Z,99771.61
2019-05-12T04:15:56.052Z,99773.95
2019-05-12T04:18:25.742Z,99781.55
2019-05-12T04:20:55.455Z,99779.36
2019-05-12T04:23:25.256Z,99786.82
2019-05-12T04:26:06.966Z,99796.04
2019-05-12T04:28:26.627Z,99795.56
2019-05-12T04:30:56.336Z,99804.27
2019-05-12T04:33:25.966Z,99806.75
2019-05-12T04:35:55.663Z,99800.59
2019-05-12T04:38:25.570Z,99814.02
2019-05-12T04:40:55.943Z,99813.13
2019-05-12T04:43:25.780Z,99818.23
2019-05-12T04:45:55.216Z,99818.80
2019-05-12T04:48:25.767Z,99823.69
2019-05-12T04:50:55.635Z,99818.37
2019-05-12T04:53:25.395Z,99830.21
2019-05-12T04:56:07.620Z,99838.53
2019-05-12T04:58:26.545Z,99839.81
2019-05-12T05:00:55.979Z,99845.75
2019-05-12T05:03:25.674Z,99844.98
2019-05-12T05:05:55.362Z,99853.11
2019-05-12T05:08:25.044Z,99856.41
2019-05-12T05:10:54.915Z,99856.50
2019-05-12T05:13:25.799Z,99865.66
2019-05-12T05:15:55.511Z,99860.02
2019-05-12T05:18:24.942Z,99871.73
2019-05-12T05:20:54.714Z,99878.96
2019-05-12T05:23:24.364Z,99880.51
2019-05-12T05:25:53.983Z,99889.16
2019-05-12T05:28:23.705Z,99890.28
2019-05-12T05:30:53.554Z,99892.60
2019-05-12T05:33:23.816Z,99898.41
2019-05-12T05:35:54.370Z,99903.06
2019-05-12T05:38:24.114Z,99909.13
2019-05-12T05:40:54.151Z,99912.52
2019-05-12T05:43:24.263Z,99915.84
2019-05-12T05:46:02.224Z,99921.47
2019-05-12T05:48:25.000Z,99922.69
2019-05-12T05:50:54.437Z,99927.45
2019-05-12T05:53:24.370Z,99931.33
2019-05-12T05:55:58.662Z,99930.98
2019-05-12T05:58:26.209Z,99934.13
2019-05-12T06:01:03.114Z,99934.81
2019-05-12T06:03:28.030Z,99942.20
2019-05-12T06:06:01.346Z,99945.19
2019-05-12T06:08:28.760Z,99947.29
2019-05-12T06:10:58.193Z,99953.48
2019-05-12T06:13:31.841Z,99948.20
2019-05-12T06:15:59.076Z,99958.01
2019-05-12T06:18:29.203Z,99959.60
2019-05-12T06:20:58.611Z,99956.12
2019-05-12T06:23:28.986Z,99960.64
2019-05-12T06:25:59.566Z,99969.76
2019-05-12T06:28:31.218Z,99971.88
2019-05-12T06:31:00.817Z,99971.05
2019-05-12T06:33:31.487Z,99979.62
2019-05-12T06:36:03.734Z,99979.66
2019-05-12T06:38:37.143Z,99987.48
2019-05-12T06:41:05.276Z,99990.16
2019-05-12T06:43:38.378Z,99996.53
2019-05-12T06:46:05.943Z,99995.20
2019-05-12T06:48:35.632Z,99999.84
2019-05-12T06:51:09.208Z,99999.06
2019-05-12T06:53:36.503Z,99997.34
2019-05-12T06:56:09.504Z,100001.22
2019-05-12T06:58:38.467Z,99999.89
2019-05-12T07:01:11.073Z,100004.38
2019-05-12T07:03:39.418Z,100005.36
2019-05-12T07:06:14.378Z,100012.39
2019-05-12T07:08:40.577Z,100016.27
2019-05-12T07:11:10.020Z,100017.08
2019-05-12T07:13:39.461Z,100015.70
2019-05-12T07:16:22.128Z,100021.95
2019-05-12T07:18:48.363Z,100020.78
2019-05-12T07:21:20.175Z,100022.81
2019-05-12T07:23:48.967Z,100020.66
2019-05-12T07:26:19.623Z,100024.88
2019-05-12T07:28:49.231Z,100026.52
2019-05-12T07:31:18.686Z,100031.03
2019-05-12T07:33:48.117Z,100027.24
2019-05-12T07:36:18.922Z,100035.47
2019-05-12T07:38:49.377Z,100037.97
2019-05-12T07:41:23.692Z,100041.66
2019-05-12T07:43:56.755Z,100048.00
2019-05-12T07:46:27.930Z,100050.83
2019-05-12T07:48:56.474Z,100057.47
2019-05-12T07:51:30.522Z,100067.80
2019-05-12T07:53:58.937Z,100072.38
2019-05-12T07:56:32.582Z,100070.72
2019-05-12T07:58:59.423Z,100076.80
2019-05-12T08:01:29.130Z,100078.55
2019-05-12T08:04:01.266Z,100087.06
2019-05-12T08:06:34.659Z,100087.48
2019-05-12T08:09:01.247Z,100076.66
2019-05-12T08:11:34.648Z,100083.19
2019-05-12T08:14:03.616Z,100074.55
2019-05-12T08:16:36.803Z,100069.38
2019-05-12T08:19:04.607Z,100073.98
2019-05-12T08:21:42.637Z,100077.66
2019-05-12T08:24:05.941Z,100077.95
2019-05-12T08:26:35.655Z,100072.78
2019-05-12T08:29:10.274Z,100070.05
2019-05-12T08:31:40.426Z,100069.95
2019-05-12T08:34:08.980Z,100066.30
2019-05-12T08:36:38.705Z,100074.13
2019-05-12T08:39:11.882Z,100074.42
2019-05-12T08:41:39.988Z,100079.28
2019-05-12T08:44:09.430Z,100078.06
2019-05-12T08:46:43.124Z,100085.98
2019-05-12T08:49:10.058Z,100075.27
2019-05-12T08:51:39.833Z,100080.53
2019-05-12T08:54:09.260Z,100090.89
2019-05-12T08:56:38.959Z,100097.36
2019-05-12T08:59:09.524Z,100092.19
2019-05-12T09:01:39.628Z,100090.77
2019-05-12T09:04:13.294Z,100085.91
2019-05-12T09:06:43.443Z,100093.38
2019-05-12T09:09:13.958Z,100094.80
2019-05-12T09:11:44.204Z,100097.05
2019-05-12T09:14:14.575Z,100097.60
2019-05-12T09:16:44.489Z,100109.36
2019-05-12T09:19:16.624Z,100106.72
2019-05-12T09:21:45.433Z,100108.72
2019-05-12T09:24:21.836Z,100113.25
2019-05-12T09:26:46.051Z,100115.57
2019-05-12T09:29:15.747Z,100118.72
2019-05-12T09:31:45.519Z,100118.11
2019-05-12T09:34:16.487Z,100128.20
2019-05-12T09:36:46.126Z,100129.50
2019-05-12T09:39:15.575Z,100125.99
2019-05-12T09:41:49.596Z,100123.30
2019-05-12T09:44:20.269Z,100126.83
2019-05-12T09:46:47.871Z,100136.80
2019-05-12T09:49:25.175Z,100131.38
2019-05-12T09:51:49.577Z,100126.02
2019-05-12T09:54:19.331Z,100132.56
2019-05-12T09:56:49.916Z,100133.89
2019-05-12T09:59:23.098Z,100142.28
2019-05-12T10:01:51.663Z,100134.02
2019-05-12T10:04:21.099Z,100136.56
2019-05-12T10:06:50.548Z,100137.39
2019-05-12T10:09:20.147Z,100138.47
2019-05-12T10:11:53.925Z,100142.45
2019-05-12T10:14:23.417Z,100139.84
2019-05-12T10:16:52.542Z,100149.21
2019-05-12T10:19:23.563Z,100147.66
2019-05-12T10:21:55.213Z,100148.66
2019-05-12T10:24:24.852Z,100144.36
2019-05-12T10:26:54.333Z,100143.08
2019-05-12T10:29:24.395Z,100147.40
2019-05-12T10:31:54.072Z,100156.37
2019-05-12T10:34:24.171Z,100163.09
2019-05-12T10:36:54.214Z,100162.98
2019-05-12T10:39:24.327Z,100157.16
2019-05-12T10:41:54.908Z,100154.77
2019-05-12T10:44:30.042Z,100152.17
2019-05-12T10:46:57.865Z,100145.61
2019-05-12T10:49:27.571Z,100146.66
2019-05-12T10:51:57.025Z,100161.22
2019-05-12T10:54:26.476Z,100161.11
2019-05-12T10:56:55.937Z,100170.80
2019-05-12T10:59:32.129Z,100175.14
2019-05-12T11:01:56.868Z,100178.17
2019-05-12T11:04:35.863Z,100169.09
2019-05-12T11:06:57.994Z,100172.73
2019-05-12T11:09:31.647Z,100178.02
2019-05-12T11:11:58.867Z,100188.05
2019-05-12T11:14:30.488Z,100189.33
2019-05-12T11:17:02.147Z,100193.87
2019-05-12T11:19:33.716Z,100195.61
2019-05-12T11:22:03.735Z,100196.81
2019-05-12T11:24:33.904Z,100196.37
2019-05-12T11:27:04.083Z,100192.08
2019-05-12T11:29:45.793Z,100199.73
2019-05-12T11:32:05.257Z,100211.56
2019-05-12T11:34:34.713Z,100211.61
2019-05-12T11:37:04.381Z,100212.30
2019-05-12T11:39:36.737Z,100201.88
2019-05-12T11:42:05.592Z,100205.81
2019-05-12T11:44:35.306Z,100200.48
2019-05-12T11:47:04.741Z,100194.70
2019-05-12T11:49:34.208Z,100193.30
2019-05-12T11:52:07.482Z,100191.03
2019-05-12T11:54:35.307Z,100180.02
2019-05-12T11:57:04.744Z,100177.30
2019-05-12T11:59:35.115Z,100180.95
2019-05-12T12:02:05.011Z,100179.03
2019-05-12T12:04:46.493Z,100186.37
2019-05-12T12:07:17.560Z,100188.00
2019-05-12T12:09:49.602Z,100191.61
2019-05-12T12:12:18.484Z,100197.87
2019-05-12T12:14:50.438Z,100205.03
2019-05-12T12:17:25.437Z,100201.72
2019-05-12T12:19:51.056Z,100208.80
2019-05-12T12:22:26.418Z,100208.28
2019-05-12T12:24:53.797Z,100216.34
2019-05-12T12:27:23.471Z,100216.13
2019-05-12T12:29:54.397Z,100219.38
2019-05-12T12:32:24.025Z,100217.49
2019-05-12T12:34:54.480Z,100211.91
2019-05-12T12:37:25.662Z,100217.93
2019-05-12T12:39:55.552Z,100209.83
2019-05-12T12:42:24.999Z,100210.16
2019-05-12T12:44:58.754Z,100209.83
2019-05-12T12:47:26.190Z,100216.94
2019-05-12T12:49:55.639Z,100214.30
2019-05-12T12:52:25.083Z,100209.63
2019-05-12T12:54:59.312Z,100219.61
2019-05-12T12:57:25.691Z,100218.06
2019-05-12T12:59:55.173Z,100210.34
2019-05-12T13:02:24.878Z,100212.28
2019-05-12T13:04:54.450Z,100204.81
2019-05-12T13:07:24.256Z,100200.52
2019-05-12T13:09:55.016Z,100208.17
2019-05-12T13:12:25.123Z,100212.59
2019-05-12T13:14:54.568Z,100217.64
2019-05-12T13:17:29.013Z,100204.59
2019-05-12T13:19:58.692Z,100212.96
2019-05-12T13:22:29.471Z,100214.11
2019-05-12T13:24:58.157Z,100211.48
2019-05-12T13:27:29.398Z,100217.27
2019-05-12T13:30:01.735Z,100214.38
2019-05-12T13:32:35.743Z,100213.20
2019-05-12T13:35:04.064Z,100223.61
2019-05-12T13:37:33.816Z,100224.69
2019-05-12T13:40:04.687Z,100225.00
2019-05-12T13:42:36.088Z,100219.39
2019-05-12T13:45:08.029Z,100204.28
2019-05-12T13:47:39.912Z,100203.52
2019-05-12T13:50:13.294Z,100199.30
2019-05-12T13:52:41.545Z,100205.18
2019-05-12T13:55:13.251Z,100210.69
2019-05-12T13:57:46.235Z,100212.96
2019-05-12T14:00:14.412Z,100207.68
2019-05-12T14:02:44.320Z,100208.12
2019-05-12T14:05:15.420Z,100209.35
2019-05-12T14:07:44.995Z,100213.84
2019-05-12T14:10:14.652Z,100212.12
2019-05-12T14:12:44.355Z,100211.45
2019-05-12T14:15:14.784Z,100213.96
2019-05-12T14:17:44.240Z,100214.50
2019-05-12T14:20:20.004Z,100210.54
2019-05-12T14:22:46.468Z,100209.27
2019-05-12T14:25:21.125Z,100203.69
2019-05-12T14:27:47.146Z,100197.94
2019-05-12T14:30:17.026Z,100190.92
2019-05-12T14:32:49.264Z,100196.56
2019-05-12T14:35:18.189Z,100193.64
2019-05-12T14:37:47.650Z,100193.63
2019-05-12T14:40:21.190Z,100194.08
2019-05-12T14:42:48.950Z,100198.38
2019-05-12T14:45:19.530Z,100198.70
2019-05-12T14:47:49.556Z,100201.59
2019-05-12T14:50:19.305Z,100198.44
2019-05-12T14:52:50.093Z,100202.95
2019-05-12T14:55:19.927Z,100214.30
2019-05-12T14:57:49.612Z,100213.22
2019-05-12T15:00:21.387Z,100212.86
2019-05-12T15:02:51.027Z,100210.56
2019-05-12T15:05:20.547Z,100215.84
2019-05-12T15:07:51.362Z,100209.13
2019-05-12T15:10:23.387Z,100211.59
2019-05-12T15:12:54.314Z,100208.30
2019-05-12T15:15:24.299Z,100214.50
2019-05-12T15:18:02.883Z,100220.85
2019-05-12T15:20:25.645Z,100217.73
2019-05-12T15:22:55.524Z,100212.59
2019-05-12T15:25:29.298Z,100210.29
2019-05-12T15:27:57.026Z,100212.65
2019-05-12T15:30:26.957Z,100209.45
2019-05-12T15:32:56.362Z,100218.50
2019-05-12T15:35:25.806Z,100237.40
2019-05-12T15:37:55.281Z,100238.43
2019-05-12T15:40:24.691Z,100237.78
2019-05-12T15:42:55.128Z,100237.65
2019-05-12T15:45:25.607Z,100232.23
2019-05-12T15:47:55.281Z,100237.65
2019-05-12T15:50:26.172Z,100238.30
2019-05-12T15:52:55.854Z,100238.64
2019-05-12T15:55:32.842Z,100223.97
2019-05-12T15:57:57.017Z,100234.80
2019-05-12T16:00:26.469Z,100236.23
2019-05-12T16:02:56.163Z,100239.08
2019-05-12T16:05:30.826Z,100243.25
2019-05-12T16:07:57.114Z,100251.00
2019-05-12T16:10:26.893Z,100250.55
2019-05-12T16:12:56.345Z,100243.97
2019-05-12T16:15:25.790Z,100246.05
2019-05-12T16:17:59.378Z,100248.97
2019-05-12T16:20:26.427Z,100249.98
2019-05-12T16:22:55.871Z,100247.90
2019-05-12T16:25:27.392Z,100248.70
2019-05-12T16:27:56.806Z,100247.00
2019-05-12T16:30:27.188Z,100244.55
2019-05-12T16:32:57.045Z,100247.13
2019-05-12T16:35:31.438Z,100251.27
2019-05-12T16:37:58.208Z,100255.81
2019-05-12T16:40:27.643Z,100253.32
2019-05-12T16:42:59.911Z,100259.25
2019-05-12T16:45:28.324Z,100264.28
2019-05-12T16:47:59.418Z,100275.81
2019-05-12T16:50:28.949Z,100270.19
2019-05-12T16:52:58.460Z,100272.55
2019-05-12T16:55:27.900Z,100273.34
2019-05-12T16:57:57.613Z,100277.25
2019-05-12T17:00:30.698Z,100275.64
2019-05-12T17:02:58.504Z,100273.19
2019-05-12T17:05:27.940Z,100271.83
2019-05-12T17:07:57.678Z,100266.69
2019-05-12T17:10:27.383Z,100273.84
2019-05-12T17:12:57.095Z,100277.73
2019-05-12T17:15:26.804Z,100282.42
2019-05-12T17:18:01.313Z,100284.92
2019-05-12T17:20:28.069Z,100282.83
2019-05-12T17:23:00.009Z,100284.16
2019-05-12T17:25:28.683Z,100287.07
2019-05-12T17:28:03.678Z,100295.23
2019-05-12T17:30:29.594Z,100285.53
2019-05-12T17:33:02.539Z,100293.16
2019-05-12T17:35:32.444Z,100288.10
2019-05-12T17:38:04.038Z,100293.50
2019-05-12T17:40:33.882Z,100296.41
2019-05-12T17:43:11.638Z,100306.32
2019-05-12T17:45:35.918Z,100311.81
2019-05-12T17:48:07.576Z,100313.77
2019-05-12T17:50:40.375Z,100317.39
2019-05-12T17:53:08.306Z,100320.23
2019-05-12T17:55:42.663Z,100325.18
2019-05-12T17:58:08.913Z,100324.58
2019-05-12T18:00:41.403Z,100327.94
2019-05-12T18:03:20.471Z,100331.40
2019-05-12T18:05:42.373Z,100327.91
2019-05-12T18:08:14.240Z,100332.73
2019-05-12T18:10:43.803Z,100333.72
2019-05-12T18:13:15.032Z,100337.01
2019-05-12T18:15:44.929Z,100341.48
2019-05-12T18:18:17.391Z,100346.18
2019-05-12T18:20:46.185Z,100352.10
2019-05-12T18:23:19.624Z,100354.09
2019-05-12T18:25:47.342Z,100359.86
2019-05-12T18:28:21.616Z,100354.36
2019-05-12T18:30:48.212Z,100355.45
2019-05-12T18:33:29.519Z,100362.52
2019-05-12T18:35:49.166Z,100366.00
2019-05-12T18:38:23.965Z,100363.14
2019-05-12T18:40:51.019Z,100374.36
2019-05-12T18:43:20.825Z,100373.84
2019-05-12T18:45:57.273Z,100374.59
2019-05-12T18:48:24.639Z,100382.59
2019-05-12T18:50:53.010Z,100379.03
2019-05-12T18:53:29.912Z,100377.98
2019-05-12T18:55:54.107Z,100386.09
2019-05-12T18:58:30.732Z,100391.52
2019-05-12T19:00:55.167Z,100391.91
2019-05-12T19:03:25.618Z,100393.26
2019-05-12T19:05:57.807Z,100394.91
2019-05-12T19:08:26.437Z,100394.42
2019-05-12T19:10:56.139Z,100402.86
2019-05-12T19:13:25.910Z,100404.00
2019-05-12T19:16:02.280Z,100402.28
2019-05-12T19:18:32.333Z,100413.92
2019-05-12T19:20:57.694Z,100412.39
2019-05-12T19:23:35.272Z,100413.87
2019-05-12T19:25:58.575Z,100421.00
2019-05-12T19:28:28.279Z,100425.88
2019-05-12T19:31:01.004Z,100425.11
2019-05-12T19:33:28.901Z,100428.84
2019-05-12T19:36:04.267Z,100426.30
2019-05-12T19:38:29.881Z,100428.39
2019-05-12T19:41:00.908Z,100435.76
2019-05-12T19:43:30.771Z,100435.31
2019-05-12T19:46:03.390Z,100439.66
2019-05-12T19:48:35.092Z,100439.70
2019-05-12T19:51:17.888Z,100444.84
2019-05-12T19:53:34.388Z,100441.63
2019-05-12T19:56:04.273Z,100444.37
2019-05-12T19:58:34.158Z,100445.11
2019-05-12T20:01:03.925Z,100447.80
2019-05-12T20:03:33.657Z,100443.09
2019-05-12T20:06:03.069Z,100447.52
2019-05-12T20:08:32.505Z,100453.38
2019-05-12T20:11:03.758Z,100447.03
2019-05-12T20:13:35.960Z,100449.16
2019-05-12T20:16:04.630Z,100449.50
2019-05-12T20:18:42.466Z,100451.37
2019-05-12T20:21:05.499Z,100448.77
2019-05-12T20:23:35.199Z,100459.42
2019-05-12T20:26:04.727Z,100461.63
2019-05-12T20:28:34.697Z,100456.92
2019-05-12T20:31:06.075Z,100465.22
2019-05-12T20:33:35.978Z,100470.16
2019-05-12T20:36:05.431Z,100467.27
2019-05-12T20:38:36.914Z,100471.93
2019-05-12T20:41:10.807Z,100477.41
2019-05-12T20:43:41.266Z,100481.25
2019-05-12T20:46:13.051Z,100471.45
2019-05-12T20:48:40.685Z,100474.65
2019-05-12T20:51:15.404Z,100480.52
2019-05-12T20:53:43.630Z,100476.63
2019-05-12T20:56:20.038Z,100480.20
2019-05-12T20:58:46.471Z,100474.16
2019-05-12T21:01:20.106Z,100481.46
2019-05-12T21:03:50.809Z,100483.23
2019-05-12T21:06:18.583Z,100474.98
2019-05-12T21:08:53.689Z,100472.99
2019-05-12T21:11:19.959Z,100476.44
2019-05-12T21:13:49.658Z,100471.35
2019-05-12T21:16:25.302Z,100471.96
2019-05-12T21:19:05.890Z,100467.77
2019-05-12T21:21:25.174Z,100480.41
2019-05-12T21:23:54.114Z,100476.36
2019-05-12T21:26:28.552Z,100477.92
2019-05-12T21:28:55.755Z,100474.28
2019-05-12T21:31:28.939Z,100474.25
2019-05-12T21:33:56.643Z,100473.47
2019-05-12T21:36:27.451Z,100482.06
2019-05-12T21:38:59.429Z,100482.22
2019-05-12T21:41:29.524Z,100483.78
2019-05-12T21:44:00.147Z,100479.86
2019-05-12T21:46:30.134Z,100482.48
2019-05-12T21:49:09.347Z,100482.66
2019-05-12T21:51:31.052Z,100483.08
2019-05-12T21:54:00.768Z,100482.57
2019-05-12T21:56:37.923Z,100479.91
2019-05-12T21:59:03.663Z,100478.69
2019-05-12T22:01:36.794Z,100480.96
2019-05-12T22:04:05.389Z,100476.34
2019-05-12T22:06:35.158Z,100484.70
2019-05-12T22:09:06.876Z,100488.38
2019-05-12T22:11:42.323Z,100476.30
2019-05-12T22:14:07.983Z,100487.56
2019-05-12T22:16:43.696Z,100492.15
2019-05-12T22:19:10.875Z,100492.62
2019-05-12T22:21:47.571Z,100495.99
2019-05-12T22:24:14.410Z,100494.86
2019-05-12T22:26:45.863Z,100505.69
2019-05-12T22:29:14.717Z,100502.63
2019-05-12T22:31:48.117Z,100501.33
2019-05-12T22:34:15.344Z,100503.41
2019-05-12T22:36:54.727Z,100512.58
2019-05-12T22:39:16.208Z,100509.92
2019-05-12T22:41:45.663Z,100513.05
2019-05-12T22:44:20.536Z,100518.31
2019-05-12T22:46:46.595Z,100512.70
2019-05-12T22:49:20.878Z,100514.50
2019-05-12T22:51:47.449Z,100519.67
2019-05-12T22:54:17.234Z,100518.49
2019-05-12T22:56:49.611Z,100521.55
2019-05-12T22:59:18.391Z,100527.23
2019-05-12T23:01:48.102Z,100532.84
2019-05-12T23:04:17.542Z,100528.20
2019-05-12T23:06:46.988Z,100532.66
2019-05-12T23:09:19.495Z,100534.84
2019-05-12T23:11:47.860Z,100536.41
2019-05-12T23:14:20.738Z,100532.47
2019-05-12T23:16:48.736Z,100540.42
2019-05-12T23:19:18.547Z,100543.55
2019-05-12T23:21:49.417Z,100541.02
2019-05-12T23:24:19.472Z,100541.19
2019-05-12T23:26:49.193Z,100545.66
2019-05-12T23:29:20.431Z,100539.92
2019-05-12T23:31:50.160Z,100545.99
2019-05-12T23:34:19.601Z,100540.39
2019-05-12T23:36:50.367Z,100538.97
2019-05-12T23:39:20.224Z,100537.31
2019-05-12T23:41:49.729Z,100536.91
2019-05-12T23:44:19.471Z,100536.55
2019-05-12T23:46:48.914Z,100539.44
2019-05-12T23:49:18.353Z,100539.93
2019-05-12T23:51:47.797Z,100535.11
2019-05-12T23:54:17.533Z,100535.80
2019-05-12T23:56:47.232Z,100536.00
2019-05-12T23:59:17.040Z,100536.03
